Flight Number: EUR2429 Duration: 6:00
Departure: Casablanca Int'l (GMMN) at 06:00 Distance: 2562 Nm
Arrival: Jeddah King Abdul Aziz (OEJN) at 12:00 Equipment: B757-200

Weather Information
Nouasseur, Morocco (GMMN) 33-22N 007-35W 206M Nov 19, 2017 - 10:30 PM EST / 2017.11.20 0330 UTC
Wind: from the SSE (160 degrees) at 3 MPH (3 KT):0
Visibility: greater than 7 mile(s):0 Temperature: 46 F (8 C) Dew Point: 35 F (2 C) Relative Humidity: 65% Pressure (altimeter): 30.09 in. Hg (1019 hPa)
ob: GMMN 200330Z 16003KT CAVOK 08/02 Q1019 NOSIG cycle: 3
Sunrise: 07:09 Sunset: 17:22 (UTC)

Jeddah King Abdul Aziz International Airport , Saudi Arabia (OEJN) 21-42N 039-11E 17M Nov 19, 2017 - 10:00 PM EST / 2017.11.20 0300 UTC
Wind: from the SE (140 degrees) at 12 MPH (10 KT):0
Visibility: greater than 7 mile(s):0 Temperature: 82 F (28 C) Dew Point: 69 F (21 C) Relative Humidity: 65% Pressure (altimeter): 29.85 in. Hg (1011 hPa)
ob: OEJN 200300Z 14010KT CAVOK 28/21 Q1011 NOSIG cycle: 3
Sunrise: 03:40 Sunset: 14:37 (UTC)

TAF:2017/11/19 18:36 TAF OEJN 191700Z 1918/2024 16014KT 7000 FEW040 SCT100 BECMG 1921/1923 09008KT TEMPO 2000/2012 FEW035CB SCT040 BECMG 2006/2008 22014KT

This route has never been flown.

Route map